DLH2PC EDLP-EDDM
Flight info
| Callsign | DLH2PC |
|---|---|
| Flight time | 0h 43m |
| Altitude | 24000 |
| Route | WRB1X WRB Z190 ELNAT P605 DKB T104 ROKIL ROKIL1A |
| Aircraft | A319/M-SDE3FGHIRWY/LB1 |
Departure
| Time | 2026-05-06 12:45 |
|---|---|
| Airport | Paderborn Lippstadt Airport (EDLP) |
Arrival
| Time | 2026-05-06 13:29 |
|---|---|
| Airport | Munich Airport (EDDM) |
| Time | Latitude | Longitude | Altitude | Speed | Heading |
|---|---|---|---|---|---|
| 2026-05-06 12:11 | 51.61082 | 8.61864 | 731 ft | 0 kts | 147° |
| 2026-05-06 12:36 | 51.61097 | 8.61848 | 731 ft | 4 kts | 152° |
| 2026-05-06 12:36 | 51.61122 | 8.61832 | 730 ft | 4 kts | 172° |
| 2026-05-06 12:36 | 51.61145 | 8.61836 | 730 ft | 4 kts | 224° |
| 2026-05-06 12:37 | 51.61152 | 8.61848 | 730 ft | 1 kts | 237° |
| 2026-05-06 12:37 | 51.61152 | 8.61849 | 730 ft | 0 kts | 237° |
| 2026-05-06 12:40 | 51.61133 | 8.61802 | 731 ft | 11 kts | 237° |
| 2026-05-06 12:41 | 51.61092 | 8.61700 | 730 ft | 11 kts | 237° |
| 2026-05-06 12:41 | 51.61030 | 8.61549 | 731 ft | 17 kts | 237° |
| 2026-05-06 12:41 | 51.60972 | 8.61408 | 731 ft | 13 kts | 237° |
| 2026-05-06 12:41 | 51.60965 | 8.61290 | 728 ft | 11 kts | 282° |
| 2026-05-06 12:42 | 51.60982 | 8.61147 | 720 ft | 15 kts | 281° |
| 2026-05-06 12:42 | 51.60965 | 8.61026 | 718 ft | 9 kts | 234° |
| 2026-05-06 12:42 | 51.60935 | 8.60958 | 717 ft | 7 kts | 234° |
| 2026-05-06 12:42 | 51.60906 | 8.60886 | 716 ft | 9 kts | 237° |
| 2026-05-06 12:43 | 51.60865 | 8.60783 | 716 ft | 13 kts | 237° |
| 2026-05-06 12:43 | 51.60808 | 8.60646 | 712 ft | 17 kts | 236° |
| 2026-05-06 12:43 | 51.60754 | 8.60486 | 716 ft | 15 kts | 262° |
| 2026-05-06 12:43 | 51.60787 | 8.60370 | 714 ft | 9 kts | 320° |
| 2026-05-06 12:44 | 51.60847 | 8.60347 | 715 ft | 10 kts | 6° |
| 2026-05-06 12:44 | 51.60895 | 8.60380 | 716 ft | 6 kts | 36° |
| 2026-05-06 12:44 | 51.60914 | 8.60414 | 715 ft | 3 kts | 54° |
| 2026-05-06 12:44 | 51.61019 | 8.60677 | 715 ft | 67 kts | 57° |
| 2026-05-06 12:45 | 51.61411 | 8.61639 | 712 ft | 136 kts | 56° |
| 2026-05-06 12:45 | 51.61962 | 8.63015 | 1103 ft | 153 kts | 54° |
| 2026-05-06 12:45 | 51.63136 | 8.65896 | 2404 ft | 167 kts | 53° |
| 2026-05-06 12:46 | 51.63827 | 8.67548 | 2842 ft | 190 kts | 56° |
| 2026-05-06 12:46 | 51.64296 | 8.69672 | 3212 ft | 215 kts | 78° |
| 2026-05-06 12:46 | 51.64593 | 8.72159 | 3631 ft | 238 kts | 78° |
| 2026-05-06 12:46 | 51.64920 | 8.74912 | 4140 ft | 263 kts | 82° |
| 2026-05-06 12:47 | 51.64796 | 8.77896 | 4910 ft | 273 kts | 110° |
| 2026-05-06 12:47 | 51.63900 | 8.80579 | 5918 ft | 273 kts | 129° |
| 2026-05-06 12:47 | 51.62800 | 8.83087 | 6947 ft | 276 kts | 130° |
| 2026-05-06 12:47 | 51.61684 | 8.85639 | 7925 ft | 281 kts | 129° |
| 2026-05-06 12:48 | 51.60549 | 8.88241 | 8892 ft | 286 kts | 129° |
| 2026-05-06 12:48 | 51.59397 | 8.90887 | 9840 ft | 292 kts | 129° |
| 2026-05-06 12:48 | 51.58192 | 8.93641 | 10356 ft | 313 kts | 129° |
| 2026-05-06 12:48 | 51.56891 | 8.96601 | 10697 ft | 337 kts | 128° |
| 2026-05-06 12:49 | 51.55512 | 8.99750 | 11282 ft | 349 kts | 128° |
| 2026-05-06 12:49 | 51.54120 | 9.02938 | 12074 ft | 355 kts | 128° |
| 2026-05-06 12:49 | 51.52689 | 9.06209 | 12888 ft | 360 kts | 128° |
| 2026-05-06 12:49 | 51.51238 | 9.09525 | 13679 ft | 365 kts | 128° |
| 2026-05-06 12:50 | 51.49747 | 9.12853 | 14419 ft | 369 kts | 130° |
| 2026-05-06 12:50 | 51.48171 | 9.16126 | 15177 ft | 372 kts | 131° |
| 2026-05-06 12:50 | 51.46540 | 9.19362 | 15923 ft | 375 kts | 133° |
| 2026-05-06 12:50 | 51.44876 | 9.22598 | 16676 ft | 378 kts | 133° |
| 2026-05-06 12:51 | 51.43194 | 9.25863 | 17402 ft | 381 kts | 133° |
| 2026-05-06 12:51 | 51.41499 | 9.29157 | 18131 ft | 385 kts | 134° |
| 2026-05-06 12:51 | 51.39775 | 9.32452 | 18767 ft | 388 kts | 134° |
| 2026-05-06 12:51 | 51.38023 | 9.35768 | 19407 ft | 391 kts | 134° |
| 2026-05-06 12:52 | 51.36259 | 9.39104 | 20060 ft | 394 kts | 134° |
| 2026-05-06 12:52 | 51.34479 | 9.42484 | 20703 ft | 398 kts | 133° |
| 2026-05-06 12:52 | 51.32690 | 9.45887 | 21319 ft | 402 kts | 133° |
| 2026-05-06 12:52 | 51.30884 | 9.49319 | 21944 ft | 405 kts | 133° |
| 2026-05-06 12:53 | 51.29062 | 9.52777 | 22533 ft | 408 kts | 133° |
| 2026-05-06 12:53 | 51.27222 | 9.56258 | 23103 ft | 412 kts | 134° |
| 2026-05-06 12:53 | 51.25366 | 9.59768 | 23570 ft | 415 kts | 135° |
| 2026-05-06 12:53 | 51.23411 | 9.63048 | 23722 ft | 412 kts | 143° |
| 2026-05-06 12:54 | 51.21100 | 9.65754 | 23755 ft | 413 kts | 153° |
| 2026-05-06 12:54 | 51.18528 | 9.67749 | 23755 ft | 409 kts | 163° |
| 2026-05-06 12:54 | 51.15805 | 9.68953 | 23748 ft | 405 kts | 174° |
| 2026-05-06 12:54 | 51.13014 | 9.69347 | 23753 ft | 401 kts | 183° |
| 2026-05-06 12:55 | 51.10220 | 9.69408 | 23752 ft | 401 kts | 183° |
| 2026-05-06 12:55 | 51.07421 | 9.69483 | 23755 ft | 402 kts | 182° |
| 2026-05-06 12:55 | 51.04626 | 9.69573 | 23755 ft | 402 kts | 182° |
| 2026-05-06 12:55 | 51.01830 | 9.69670 | 23749 ft | 402 kts | 182° |
| 2026-05-06 12:56 | 50.99032 | 9.69768 | 23746 ft | 402 kts | 182° |
| 2026-05-06 12:56 | 50.96239 | 9.69864 | 23743 ft | 402 kts | 182° |
| 2026-05-06 12:56 | 50.93443 | 9.69952 | 23741 ft | 402 kts | 182° |
| 2026-05-06 12:56 | 50.90648 | 9.70034 | 23724 ft | 401 kts | 182° |
| 2026-05-06 12:57 | 50.87855 | 9.70116 | 23726 ft | 402 kts | 182° |
| 2026-05-06 12:57 | 50.85061 | 9.70250 | 23727 ft | 403 kts | 181° |
| 2026-05-06 12:57 | 50.82294 | 9.70495 | 23725 ft | 403 kts | 180° |
| 2026-05-06 12:57 | 50.79455 | 9.70821 | 23725 ft | 404 kts | 179° |
| 2026-05-06 12:58 | 50.76692 | 9.71163 | 23724 ft | 404 kts | 179° |
| 2026-05-06 12:58 | 50.73883 | 9.71505 | 23726 ft | 404 kts | 179° |
| 2026-05-06 12:58 | 50.71077 | 9.71828 | 23727 ft | 404 kts | 180° |
| 2026-05-06 12:58 | 50.68272 | 9.72133 | 23726 ft | 404 kts | 180° |
| 2026-05-06 12:59 | 50.65468 | 9.72425 | 23722 ft | 404 kts | 180° |
| 2026-05-06 12:59 | 50.62662 | 9.72704 | 23723 ft | 404 kts | 180° |
| 2026-05-06 12:59 | 50.59858 | 9.72979 | 23727 ft | 404 kts | 180° |
| 2026-05-06 12:59 | 50.57051 | 9.73260 | 23726 ft | 404 kts | 180° |
| 2026-05-06 13:00 | 50.54279 | 9.73541 | 23729 ft | 404 kts | 180° |
| 2026-05-06 13:00 | 50.51478 | 9.73826 | 23727 ft | 404 kts | 180° |
| 2026-05-06 13:00 | 50.48672 | 9.74113 | 23729 ft | 404 kts | 180° |
| 2026-05-06 13:00 | 50.45861 | 9.74398 | 23722 ft | 404 kts | 180° |
| 2026-05-06 13:01 | 50.43052 | 9.74682 | 23716 ft | 405 kts | 180° |
| 2026-05-06 13:01 | 50.40229 | 9.74964 | 23702 ft | 407 kts | 179° |
| 2026-05-06 13:01 | 50.37403 | 9.75246 | 23712 ft | 407 kts | 180° |
| 2026-05-06 13:01 | 50.34568 | 9.75531 | 23716 ft | 408 kts | 180° |
| 2026-05-06 13:02 | 50.31729 | 9.75817 | 23719 ft | 409 kts | 179° |
| 2026-05-06 13:02 | 50.28890 | 9.76102 | 23724 ft | 409 kts | 179° |
| 2026-05-06 13:02 | 50.26082 | 9.76388 | 23729 ft | 409 kts | 179° |
| 2026-05-06 13:02 | 50.23235 | 9.76680 | 23727 ft | 409 kts | 179° |
| 2026-05-06 13:03 | 50.20386 | 9.76971 | 23725 ft | 410 kts | 179° |
| 2026-05-06 13:03 | 50.17542 | 9.77262 | 23732 ft | 410 kts | 179° |
| 2026-05-06 13:03 | 50.14681 | 9.77551 | 23733 ft | 411 kts | 179° |
| 2026-05-06 13:03 | 50.11825 | 9.77834 | 23734 ft | 411 kts | 179° |
| 2026-05-06 13:04 | 50.08969 | 9.78116 | 23742 ft | 411 kts | 179° |
| 2026-05-06 13:04 | 50.06115 | 9.78395 | 23743 ft | 411 kts | 179° |
| 2026-05-06 13:04 | 50.03255 | 9.78625 | 23745 ft | 411 kts | 180° |
| 2026-05-06 13:04 | 50.00398 | 9.78811 | 23746 ft | 411 kts | 179° |
| 2026-05-06 13:05 | 49.97540 | 9.78974 | 23744 ft | 411 kts | 180° |
| 2026-05-06 13:05 | 49.94722 | 9.79126 | 23748 ft | 411 kts | 180° |
| 2026-05-06 13:05 | 49.91855 | 9.79280 | 23748 ft | 411 kts | 179° |
| 2026-05-06 13:05 | 49.88992 | 9.79449 | 23756 ft | 412 kts | 179° |
| 2026-05-06 13:06 | 49.86132 | 9.79630 | 23759 ft | 412 kts | 179° |
| 2026-05-06 13:06 | 49.83272 | 9.79818 | 23760 ft | 412 kts | 179° |
| 2026-05-06 13:06 | 49.80396 | 9.80010 | 23769 ft | 416 kts | 179° |
| 2026-05-06 13:06 | 49.77450 | 9.80202 | 23787 ft | 431 kts | 179° |
| 2026-05-06 13:07 | 49.74413 | 9.80396 | 23781 ft | 443 kts | 179° |
| 2026-05-06 13:07 | 49.71294 | 9.80599 | 23787 ft | 454 kts | 178° |
| 2026-05-06 13:07 | 49.68146 | 9.80898 | 23789 ft | 463 kts | 177° |
| 2026-05-06 13:07 | 49.64911 | 9.81334 | 23792 ft | 469 kts | 175° |
| 2026-05-06 13:08 | 49.61652 | 9.81855 | 23799 ft | 472 kts | 175° |
| 2026-05-06 13:08 | 49.58386 | 9.82442 | 23806 ft | 473 kts | 172° |
| 2026-05-06 13:08 | 49.55210 | 9.83769 | 23800 ft | 475 kts | 160° |
| 2026-05-06 13:08 | 49.52278 | 9.86099 | 23811 ft | 475 kts | 148° |
| 2026-05-06 13:09 | 49.49726 | 9.89328 | 23795 ft | 477 kts | 136° |
| 2026-05-06 13:09 | 49.47562 | 9.93226 | 23812 ft | 480 kts | 131° |
| 2026-05-06 13:09 | 49.45448 | 9.97201 | 23809 ft | 480 kts | 131° |
| 2026-05-06 13:09 | 49.43341 | 10.01187 | 23808 ft | 480 kts | 131° |
| 2026-05-06 13:10 | 49.41240 | 10.05169 | 23804 ft | 480 kts | 131° |
| 2026-05-06 13:10 | 49.39014 | 10.08962 | 23796 ft | 477 kts | 139° |
| 2026-05-06 13:10 | 49.36387 | 10.12020 | 23795 ft | 473 kts | 150° |
| 2026-05-06 13:10 | 49.33435 | 10.14206 | 23796 ft | 470 kts | 161° |
| 2026-05-06 13:11 | 49.30334 | 10.15786 | 23804 ft | 470 kts | 163° |
| 2026-05-06 13:11 | 49.27225 | 10.17338 | 23810 ft | 470 kts | 163° |
| 2026-05-06 13:11 | 49.24113 | 10.18890 | 23811 ft | 471 kts | 163° |
| 2026-05-06 13:11 | 49.21002 | 10.20445 | 23811 ft | 471 kts | 163° |
| 2026-05-06 13:12 | 49.17892 | 10.22018 | 23783 ft | 470 kts | 162° |
| 2026-05-06 13:12 | 49.14965 | 10.24084 | 23430 ft | 471 kts | 152° |
| 2026-05-06 13:12 | 49.12367 | 10.27140 | 23051 ft | 472 kts | 139° |
| 2026-05-06 13:12 | 49.10132 | 10.30674 | 22648 ft | 455 kts | 137° |
| 2026-05-06 13:13 | 49.07966 | 10.34130 | 22204 ft | 448 kts | 137° |
| 2026-05-06 13:13 | 49.05842 | 10.37522 | 21595 ft | 436 kts | 137° |
| 2026-05-06 13:13 | 49.03779 | 10.40818 | 21149 ft | 423 kts | 137° |
| 2026-05-06 13:13 | 49.01776 | 10.44021 | 20745 ft | 411 kts | 137° |
| 2026-05-06 13:14 | 48.99826 | 10.47132 | 20342 ft | 401 kts | 137° |
| 2026-05-06 13:14 | 48.97915 | 10.50170 | 19942 ft | 393 kts | 137° |
| 2026-05-06 13:14 | 48.96039 | 10.53151 | 19550 ft | 387 kts | 137° |
| 2026-05-06 13:14 | 48.94206 | 10.56060 | 19154 ft | 382 kts | 137° |
| 2026-05-06 13:15 | 48.92378 | 10.58955 | 18756 ft | 376 kts | 138° |
| 2026-05-06 13:15 | 48.90579 | 10.61801 | 18376 ft | 370 kts | 138° |
| 2026-05-06 13:15 | 48.88808 | 10.64603 | 17982 ft | 364 kts | 138° |
| 2026-05-06 13:15 | 48.87066 | 10.67359 | 17554 ft | 359 kts | 138° |
| 2026-05-06 13:16 | 48.85347 | 10.70077 | 17121 ft | 356 kts | 139° |
| 2026-05-06 13:16 | 48.83638 | 10.72774 | 16696 ft | 353 kts | 139° |
| 2026-05-06 13:16 | 48.81937 | 10.75454 | 16277 ft | 351 kts | 139° |
| 2026-05-06 13:16 | 48.80250 | 10.78108 | 15864 ft | 348 kts | 139° |
| 2026-05-06 13:17 | 48.78574 | 10.80743 | 15447 ft | 345 kts | 139° |
| 2026-05-06 13:17 | 48.76916 | 10.83350 | 15045 ft | 342 kts | 139° |
| 2026-05-06 13:17 | 48.75266 | 10.85943 | 14648 ft | 340 kts | 139° |
| 2026-05-06 13:17 | 48.73649 | 10.88481 | 14247 ft | 338 kts | 139° |
| 2026-05-06 13:18 | 48.72017 | 10.91033 | 13867 ft | 336 kts | 139° |
| 2026-05-06 13:18 | 48.70393 | 10.93571 | 13472 ft | 334 kts | 139° |
| 2026-05-06 13:18 | 48.68775 | 10.96096 | 13030 ft | 335 kts | 139° |
| 2026-05-06 13:18 | 48.67157 | 10.98623 | 12608 ft | 333 kts | 139° |
| 2026-05-06 13:19 | 48.65548 | 11.01140 | 12190 ft | 331 kts | 139° |
| 2026-05-06 13:19 | 48.63946 | 11.03639 | 11777 ft | 329 kts | 139° |
| 2026-05-06 13:19 | 48.62893 | 11.05280 | 11515 ft | 328 kts | 139° |
| 2026-05-06 13:19 | 48.61309 | 11.07747 | 11097 ft | 325 kts | 139° |
| 2026-05-06 13:20 | 48.59753 | 11.10170 | 10767 ft | 317 kts | 139° |
| 2026-05-06 13:20 | 48.58232 | 11.12542 | 10447 ft | 311 kts | 138° |
| 2026-05-06 13:20 | 48.56266 | 11.15600 | 10072 ft | 302 kts | 139° |
| 2026-05-06 13:20 | 48.55285 | 11.17119 | 9943 ft | 295 kts | 139° |
| 2026-05-06 13:21 | 48.53872 | 11.19309 | 9693 ft | 289 kts | 139° |
| 2026-05-06 13:21 | 48.52476 | 11.21468 | 9333 ft | 286 kts | 137° |
| 2026-05-06 13:21 | 48.51089 | 11.23608 | 8966 ft | 284 kts | 137° |
| 2026-05-06 13:21 | 48.49715 | 11.25729 | 8592 ft | 281 kts | 137° |
| 2026-05-06 13:22 | 48.48362 | 11.27819 | 8311 ft | 276 kts | 137° |
| 2026-05-06 13:22 | 48.47055 | 11.29841 | 8026 ft | 270 kts | 136° |
| 2026-05-06 13:22 | 48.45752 | 11.31850 | 7716 ft | 266 kts | 136° |
| 2026-05-06 13:22 | 48.44461 | 11.33829 | 7393 ft | 264 kts | 136° |
| 2026-05-06 13:23 | 48.43180 | 11.35792 | 7068 ft | 262 kts | 136° |
| 2026-05-06 13:23 | 48.41911 | 11.37740 | 6754 ft | 259 kts | 135° |
| 2026-05-06 13:23 | 48.40660 | 11.39660 | 6436 ft | 255 kts | 135° |
| 2026-05-06 13:23 | 48.39430 | 11.41551 | 6125 ft | 251 kts | 135° |
| 2026-05-06 13:24 | 48.38210 | 11.43419 | 5790 ft | 249 kts | 135° |
| 2026-05-06 13:24 | 48.37007 | 11.45258 | 5538 ft | 244 kts | 135° |
| 2026-05-06 13:24 | 48.35833 | 11.47055 | 5254 ft | 240 kts | 134° |
| 2026-05-06 13:24 | 48.34840 | 11.49013 | 5030 ft | 233 kts | 117° |
| 2026-05-06 13:25 | 48.34382 | 11.51322 | 4787 ft | 230 kts | 96° |
| 2026-05-06 13:25 | 48.34456 | 11.53717 | 4511 ft | 230 kts | 83° |
| 2026-05-06 13:25 | 48.34651 | 11.56089 | 4209 ft | 231 kts | 83° |
| 2026-05-06 13:25 | 48.34839 | 11.58422 | 3899 ft | 223 kts | 83° |
| 2026-05-06 13:26 | 48.35020 | 11.60699 | 3612 ft | 215 kts | 83° |
| 2026-05-06 13:26 | 48.35194 | 11.62912 | 3340 ft | 211 kts | 83° |
| 2026-05-06 13:26 | 48.35363 | 11.65076 | 3057 ft | 206 kts | 82° |
| 2026-05-06 13:26 | 48.35531 | 11.67201 | 2791 ft | 201 kts | 82° |
| 2026-05-06 13:27 | 48.35418 | 11.69172 | 2601 ft | 186 kts | 115° |
| 2026-05-06 13:27 | 48.34680 | 11.70746 | 2341 ft | 185 kts | 125° |
| 2026-05-06 13:27 | 48.34020 | 11.72297 | 1986 ft | 169 kts | 109° |
| 2026-05-06 13:27 | 48.33967 | 11.73908 | 1740 ft | 149 kts | 82° |
| 2026-05-06 13:28 | 48.34089 | 11.75381 | 1515 ft | 134 kts | 82° |
| 2026-05-06 13:28 | 48.34187 | 11.76631 | 1486 ft | 112 kts | 83° |
| 2026-05-06 13:28 | 48.34273 | 11.77724 | 1486 ft | 99 kts | 83° |
| 2026-05-06 13:28 | 48.34333 | 11.78536 | 1486 ft | 55 kts | 84° |
| 2026-05-06 13:29 | 48.34376 | 11.78986 | 1484 ft | 38 kts | 71° |
| 2026-05-06 13:29 | 48.34486 | 11.79266 | 1486 ft | 24 kts | 53° |
| 2026-05-06 13:29 | 48.34567 | 11.79425 | 1486 ft | 18 kts | 53° |
| 2026-05-06 13:29 | 48.34655 | 11.79556 | 1480 ft | 18 kts | 17° |
| 2026-05-06 13:30 | 48.34779 | 11.79554 | 1481 ft | 18 kts | 5° |
| 2026-05-06 13:30 | 48.34879 | 11.79555 | 1480 ft | 5 kts | 354° |
| 2026-05-06 13:30 | 48.34900 | 11.79551 | 1486 ft | 3 kts | 352° |
| 2026-05-06 13:30 | 48.34926 | 11.79546 | 1483 ft | 4 kts | 352° |
| 2026-05-06 13:31 | 48.34928 | 11.79545 | 1476 ft | 0 kts | 352° |
| 2026-05-06 13:31 | 48.34933 | 11.79544 | 1478 ft | 2 kts | 352° |
| 2026-05-06 13:31 | 48.34960 | 11.79538 | 1486 ft | 6 kts | 352° |
| 2026-05-06 13:31 | 48.35012 | 11.79528 | 1486 ft | 9 kts | 353° |
| 2026-05-06 13:32 | 48.35085 | 11.79519 | 1475 ft | 11 kts | 352° |
| 2026-05-06 13:32 | 48.35159 | 11.79505 | 1481 ft | 10 kts | 354° |
| 2026-05-06 13:32 | 48.35228 | 11.79495 | 1486 ft | 9 kts | 353° |
| 2026-05-06 13:32 | 48.35286 | 11.79484 | 1483 ft | 8 kts | 353° |
| 2026-05-06 13:33 | 48.35333 | 11.79475 | 1485 ft | 6 kts | 353° |
| 2026-05-06 13:33 | 48.35380 | 11.79467 | 1485 ft | 8 kts | 353° |
| 2026-05-06 13:33 | 48.35439 | 11.79456 | 1483 ft | 8 kts | 353° |
| 2026-05-06 13:33 | 48.35458 | 11.79414 | 1476 ft | 4 kts | 261° |
| 2026-05-06 13:34 | 48.35455 | 11.79377 | 1478 ft | 3 kts | 263° |
| 2026-05-06 13:34 | 48.35453 | 11.79355 | 1485 ft | 1 kts | 264° |
| 2026-05-06 13:34 | 48.35453 | 11.79347 | 1485 ft | 0 kts | 264° |
| 2026-05-06 13:34 | 48.35452 | 11.79345 | 1485 ft | 1 kts | 264° |
| 2026-05-06 13:35 | 48.35451 | 11.79330 | 1485 ft | 2 kts | 264° |
| 2026-05-06 13:35 | 48.35451 | 11.79318 | 1485 ft | 1 kts | 264° |
| 2026-05-06 13:35 | 48.35450 | 11.79311 | 1485 ft | 0 kts | 264° |